createdAt,value
2022-09-20T00:01:32.214Z,1.48
2022-09-20T00:04:01.213Z,1.20
2022-09-20T00:06:30.271Z,1.30
2022-09-20T00:08:57.873Z,1.30
2022-09-20T00:11:30.903Z,1.23
2022-09-20T00:14:00.529Z,1.10
2022-09-20T00:16:30.499Z,1.20
2022-09-20T00:18:59.548Z,1.20
2022-09-20T00:26:22.812Z,0.98
2022-09-20T00:28:51.933Z,1.20
2022-09-20T00:31:19.428Z,1.30
2022-09-20T00:34:05.091Z,1.40
2022-09-20T00:36:32.016Z,1.30
2022-09-20T00:39:00.755Z,1.20
2022-09-20T00:41:29.096Z,1.08
2022-09-20T00:43:56.308Z,1.17
2022-09-20T00:46:37.588Z,1.13
2022-09-20T00:49:15.903Z,1.17
2022-09-20T00:51:49.171Z,1.20
2022-09-20T00:54:20.486Z,1.02
2022-09-20T00:56:49.043Z,1.00
2022-09-20T00:59:31.386Z,1.30
2022-09-20T01:02:03.181Z,1.00
2022-09-20T01:04:30.549Z,0.80
2022-09-20T01:07:02.949Z,1.40
2022-09-20T01:09:29.888Z,1.08
2022-09-20T01:11:58.134Z,1.20
2022-09-20T01:14:26.932Z,1.30
2022-09-20T01:16:56.537Z,1.20
2022-09-20T01:19:37.922Z,1.10
2022-09-20T01:22:12.330Z,1.00
2022-09-20T01:24:47.746Z,1.10
2022-09-20T01:27:43.773Z,0.90
2022-09-20T01:30:25.150Z,0.98
2022-09-20T01:32:57.934Z,1.08
2022-09-20T01:35:28.676Z,1.00
2022-09-20T01:38:04.689Z,1.08
2022-09-20T01:40:38.494Z,1.08
2022-09-20T01:43:42.249Z,1.00
2022-09-20T01:46:34.684Z,1.00
2022-09-20T01:49:28.537Z,1.08
2022-09-20T01:52:28.921Z,1.10
2022-09-20T01:55:07.872Z,1.02
2022-09-20T01:57:45.658Z,1.10
2022-09-20T02:00:31.834Z,1.10
2022-09-20T02:03:17.664Z,1.02
2022-09-20T02:06:12.879Z,1.10
2022-09-20T02:09:03.881Z,1.10
2022-09-20T02:11:52.638Z,1.60
2022-09-20T02:14:42.453Z,1.20
2022-09-20T02:17:31.367Z,1.00
2022-09-20T02:20:16.421Z,1.15
2022-09-20T02:23:16.753Z,1.20
2022-09-20T02:25:49.456Z,1.20
2022-09-20T02:28:22.371Z,1.30
2022-09-20T02:31:08.197Z,1.05
2022-09-20T02:34:02.731Z,1.10
2022-09-20T02:36:47.678Z,1.20
2022-09-20T02:39:23.475Z,1.33
2022-09-20T02:42:13.257Z,1.02
2022-09-20T02:44:54.813Z,1.15
2022-09-20T02:47:38.006Z,1.05
2022-09-20T02:50:28.205Z,1.10
2022-09-20T02:53:30.451Z,1.40
2022-09-20T02:56:19.532Z,1.55
2022-09-20T02:58:49.389Z,1.50
2022-09-20T03:01:31.098Z,1.45
2022-09-20T03:04:37.147Z,1.63
2022-09-20T03:07:20.855Z,1.40
2022-09-20T03:10:06.922Z,1.10
2022-09-20T03:12:33.842Z,1.30
2022-09-20T03:15:31.580Z,1.35
2022-09-20T03:18:16.673Z,1.27
2022-09-20T03:20:54.948Z,1.20
2022-09-20T03:24:05.895Z,1.27
2022-09-20T03:27:02.350Z,1.30
2022-09-20T03:30:03.313Z,1.42
2022-09-20T03:33:12.106Z,1.27
2022-09-20T03:35:39.464Z,1.30
2022-09-20T03:38:44.773Z,1.35
2022-09-20T03:41:23.708Z,1.30
2022-09-20T03:44:20.752Z,1.20
2022-09-20T03:46:51.837Z,1.30
2022-09-20T03:49:43.649Z,1.42
2022-09-20T03:52:21.990Z,1.30
2022-09-20T03:55:02.640Z,1.10
2022-09-20T03:57:59.075Z,1.40
2022-09-20T04:00:51.617Z,1.95
2022-09-20T04:03:27.435Z,1.27
2022-09-20T04:06:18.673Z,1.20
2022-09-20T04:08:56.811Z,1.05
2022-09-20T04:11:40.885Z,1.27
2022-09-20T04:14:40.357Z,1.30
2022-09-20T04:17:27.470Z,1.70
2022-09-20T04:20:11.923Z,1.30
2022-09-20T04:22:40.449Z,1.17
2022-09-20T04:25:18.160Z,1.20
2022-09-20T04:28:04.979Z,1.17
2022-09-20T04:30:37.585Z,1.20
2022-09-20T04:33:31.369Z,1.25
2022-09-20T04:36:31.319Z,1.10
2022-09-20T04:39:05.097Z,1.52
2022-09-20T04:42:00.205Z,1.10
2022-09-20T04:44:49.421Z,1.20
2022-09-20T04:47:28.401Z,1.30
2022-09-20T04:50:13.759Z,1.10
2022-09-20T04:53:19.731Z,1.20
2022-09-20T04:56:07.101Z,1.10
2022-09-20T04:58:48.023Z,1.50
2022-09-20T05:01:34.587Z,1.30
2022-09-20T05:04:53.725Z,1.33
2022-09-20T05:07:45.887Z,1.20
2022-09-20T05:10:52.509Z,1.10
2022-09-20T05:13:38.351Z,1.30
2022-09-20T05:16:20.617Z,1.55
2022-09-20T05:18:59.536Z,1.05
2022-09-20T05:21:48.076Z,1.20
2022-09-20T05:24:44.930Z,1.48
2022-09-20T05:27:19.571Z,1.52
2022-09-20T05:30:19.496Z,1.10
2022-09-20T05:33:15.319Z,1.30
2022-09-20T05:36:00.408Z,1.38
2022-09-20T05:38:55.784Z,1.20
2022-09-20T05:42:03.192Z,1.08
2022-09-20T05:44:50.027Z,1.30
2022-09-20T05:47:37.683Z,1.40
2022-09-20T05:50:39.380Z,1.25
2022-09-20T05:53:33.696Z,1.60
2022-09-20T05:56:30.879Z,2.30
2022-09-20T05:59:22.652Z,2.17
2022-09-20T06:02:27.030Z,1.90
2022-09-20T06:05:00.184Z,1.80
2022-09-20T06:08:04.558Z,1.77
2022-09-20T06:10:50.230Z,1.55
2022-09-20T06:13:49.869Z,1.33
2022-09-20T06:16:35.448Z,1.45
2022-09-20T06:19:25.438Z,1.40
2022-09-20T06:22:01.908Z,1.30
2022-09-20T06:24:48.718Z,1.40
2022-09-20T06:27:31.402Z,1.17
2022-09-20T06:30:02.172Z,1.40
2022-09-20T06:32:29.079Z,1.33
2022-09-20T06:34:56.064Z,1.30
2022-09-20T06:38:09.843Z,1.80
2022-09-20T06:41:06.938Z,1.48
2022-09-20T06:43:37.116Z,1.58
2022-09-20T06:46:03.975Z,1.30
2022-09-20T06:48:32.091Z,1.20
2022-09-20T06:50:59.040Z,1.27
2022-09-20T06:53:32.475Z,1.67
2022-09-20T06:56:00.681Z,1.25
2022-09-20T06:58:28.290Z,2.00
2022-09-20T07:00:55.476Z,1.42
2022-09-20T07:03:22.499Z,1.40
2022-09-20T07:05:49.465Z,1.40
2022-09-20T07:08:16.797Z,1.45
2022-09-20T07:10:44.097Z,2.20
2022-09-20T07:13:13.854Z,1.45
2022-09-20T07:15:40.879Z,1.50
2022-09-20T07:18:08.226Z,2.17
2022-09-20T07:20:35.550Z,1.60
2022-09-20T07:23:03.781Z,1.70
2022-09-20T07:25:31.978Z,1.50
2022-09-20T07:28:01.820Z,1.50
2022-09-20T07:30:28.898Z,1.50
2022-09-20T07:32:55.806Z,1.63
2022-09-20T07:35:22.863Z,1.58
2022-09-20T07:37:56.929Z,1.65
2022-09-20T07:40:25.260Z,1.75
2022-09-20T07:42:56.109Z,2.25
2022-09-20T07:45:24.093Z,1.90
2022-09-20T07:47:52.182Z,1.95
2022-09-20T07:50:19.782Z,1.80
2022-09-20T07:52:46.791Z,1.63
2022-09-20T07:55:13.787Z,1.33
2022-09-20T07:57:47.821Z,1.40
2022-09-20T08:00:15.302Z,1.40
2022-09-20T08:02:42.457Z,1.17
2022-09-20T08:05:09.739Z,1.00
2022-09-20T08:07:37.548Z,1.02
2022-09-20T08:10:05.601Z,1.50
2022-09-20T08:15:20.157Z,1.88
2022-09-20T08:17:48.469Z,1.70
2022-09-20T08:20:15.638Z,1.25
2022-09-20T08:22:43.449Z,1.40
2022-09-20T08:25:10.477Z,1.20
2022-09-20T08:27:37.571Z,1.20
2022-09-20T08:30:04.887Z,0.93
2022-09-20T08:32:32.677Z,1.00
2022-09-20T08:34:59.621Z,1.00
2022-09-20T08:37:26.739Z,1.00
2022-09-20T08:39:57.757Z,1.20
2022-09-20T08:42:36.633Z,1.33
2022-09-20T08:45:33.775Z,1.00
2022-09-20T08:48:05.695Z,1.00
2022-09-20T08:50:34.354Z,1.17
2022-09-20T08:53:05.206Z,1.10
2022-09-20T08:55:39.976Z,1.10
2022-09-20T08:58:12.050Z,0.95
2022-09-20T09:00:40.944Z,1.02
2022-09-20T09:03:13.231Z,1.00
2022-09-20T09:05:48.878Z,1.00
2022-09-20T09:08:19.097Z,1.10
2022-09-20T09:10:54.220Z,0.90
2022-09-20T09:13:56.384Z,1.63
2022-09-20T09:16:33.622Z,1.05
2022-09-20T09:19:34.534Z,1.00
2022-09-20T09:22:04.552Z,1.55
2022-09-20T09:24:31.841Z,1.00
2022-09-20T09:27:08.496Z,1.20
2022-09-20T09:29:35.398Z,1.00
2022-09-20T09:32:21.008Z,1.10
2022-09-20T09:34:48.030Z,1.30
2022-09-20T09:37:30.595Z,2.17
2022-09-20T09:40:16.732Z,1.83
2022-09-20T09:42:55.353Z,1.83
2022-09-20T09:45:27.206Z,1.60
2022-09-20T09:47:56.123Z,1.50
2022-09-20T09:50:27.036Z,1.08
2022-09-20T09:53:12.197Z,0.90
2022-09-20T09:56:09.770Z,0.80
2022-09-20T09:58:58.068Z,0.90
2022-09-20T10:02:11.028Z,0.82
2022-09-20T10:04:52.345Z,0.68
2022-09-20T10:07:38.618Z,0.80
2022-09-20T10:10:34.450Z,0.95
2022-09-20T10:13:08.830Z,1.42
2022-09-20T10:15:35.872Z,1.20
2022-09-20T10:18:17.205Z,1.10
2022-09-20T10:20:55.776Z,1.00
2022-09-20T10:24:04.274Z,1.00
2022-09-20T10:26:37.700Z,0.90
2022-09-20T10:29:23.542Z,1.13
2022-09-20T10:31:54.541Z,0.70
2022-09-20T10:34:43.248Z,0.80
2022-09-20T10:37:40.957Z,0.60
2022-09-20T10:40:51.249Z,0.68
2022-09-20T10:43:27.850Z,0.88
2022-09-20T10:46:27.992Z,0.73
2022-09-20T10:49:03.555Z,0.88
2022-09-20T10:51:54.744Z,0.80
2022-09-20T10:54:49.089Z,0.73
2022-09-20T10:57:26.073Z,0.70
2022-09-20T11:00:08.395Z,0.75
2022-09-20T11:03:00.663Z,1.10
2022-09-20T11:05:51.604Z,1.00
2022-09-20T11:08:23.042Z,0.90
2022-09-20T11:11:04.104Z,0.90
2022-09-20T11:13:54.765Z,0.85
2022-09-20T11:16:36.747Z,0.90
2022-09-20T11:21:39.218Z,0.85
2022-09-20T11:24:31.485Z,0.95
2022-09-20T11:27:04.428Z,0.70
2022-09-20T11:29:42.428Z,1.08
2022-09-20T11:32:14.164Z,0.90
2022-09-20T11:34:53.705Z,1.02
2022-09-20T11:37:24.116Z,0.90
2022-09-20T11:39:54.959Z,0.90
2022-09-20T11:42:50.161Z,1.08
2022-09-20T11:45:17.292Z,1.20
2022-09-20T11:47:55.518Z,0.82
2022-09-20T11:51:00.554Z,1.08
2022-09-20T11:53:57.706Z,1.00
2022-09-20T11:56:30.949Z,0.70
2022-09-20T11:59:04.615Z,1.00
2022-09-20T12:01:40.628Z,0.90
2022-09-20T12:04:33.633Z,0.65
2022-09-20T12:07:17.824Z,0.82
2022-09-20T12:10:20.597Z,0.90
2022-09-20T12:12:51.137Z,1.52
2022-09-20T12:15:39.500Z,1.27
2022-09-20T12:20:38.786Z,1.00
2022-09-20T12:26:21.576Z,0.90
2022-09-20T12:29:00.540Z,0.98
2022-09-20T12:31:33.601Z,0.75
2022-09-20T12:34:17.525Z,0.90
2022-09-20T12:36:53.684Z,1.00
2022-09-20T12:39:29.936Z,0.85
2022-09-20T12:41:57.166Z,1.00
2022-09-20T12:44:37.947Z,0.80
2022-09-20T12:47:05.238Z,1.10
2022-09-20T12:50:01.623Z,0.98
2022-09-20T12:52:55.997Z,1.10
2022-09-20T12:55:55.017Z,0.75
2022-09-20T12:58:35.075Z,1.10
2022-09-20T13:01:05.223Z,1.17
2022-09-20T13:03:37.488Z,1.23
2022-09-20T13:06:07.483Z,0.95
2022-09-20T13:08:52.640Z,0.80
2022-09-20T13:11:29.583Z,1.00
2022-09-20T13:13:59.281Z,0.98
2022-09-20T13:16:32.586Z,1.00
2022-09-20T13:19:20.265Z,1.00
2022-09-20T13:22:22.177Z,1.17
2022-09-20T13:24:52.098Z,0.95
2022-09-20T13:27:24.528Z,0.90
2022-09-20T13:29:53.395Z,0.90
2022-09-20T13:32:28.516Z,1.25
2022-09-20T13:35:10.742Z,1.13
2022-09-20T13:37:40.165Z,1.13
2022-09-20T13:40:16.568Z,1.10
2022-09-20T13:42:44.087Z,1.00
2022-09-20T13:45:13.852Z,1.08
2022-09-20T13:47:43.714Z,1.30
2022-09-20T13:50:24.118Z,1.00
2022-09-20T13:52:56.829Z,1.20
2022-09-20T13:55:36.038Z,1.00
2022-09-20T13:58:09.389Z,1.02
2022-09-20T14:00:44.013Z,1.15
2022-09-20T14:03:19.566Z,0.90
2022-09-20T14:05:54.973Z,1.13
2022-09-20T14:11:07.795Z,0.80
2022-09-20T14:13:40.247Z,0.90
2022-09-20T14:16:08.878Z,1.08
2022-09-20T14:18:37.886Z,0.90
2022-09-20T14:23:32.945Z,1.30
2022-09-20T14:26:25.741Z,1.10
2022-09-20T14:28:53.294Z,1.33
2022-09-20T14:31:31.833Z,1.25
2022-09-20T14:34:02.242Z,1.20
2022-09-20T14:36:30.926Z,1.02
2022-09-20T14:39:02.963Z,1.10
2022-09-20T14:41:39.272Z,1.10
2022-09-20T14:44:18.066Z,1.10
2022-09-20T14:46:45.120Z,1.30
2022-09-20T14:49:32.962Z,1.15
2022-09-20T14:52:27.820Z,1.13
2022-09-20T14:55:17.797Z,1.20
2022-09-20T14:57:46.957Z,0.98
2022-09-20T15:00:16.516Z,1.00
2022-09-20T15:02:45.547Z,1.00
2022-09-20T15:05:26.027Z,1.00
2022-09-20T15:07:57.671Z,1.00
2022-09-20T15:10:25.497Z,0.90
2022-09-20T15:12:52.817Z,1.08
2022-09-20T15:15:19.920Z,1.10
2022-09-20T15:17:47.529Z,1.33
2022-09-20T15:20:23.224Z,1.20
2022-09-20T15:22:51.124Z,1.00
2022-09-20T15:25:21.101Z,0.90
2022-09-20T15:27:50.923Z,0.98
2022-09-20T15:30:22.410Z,0.90
2022-09-20T15:32:49.533Z,1.10
2022-09-20T15:35:16.686Z,1.20
2022-09-20T15:37:44.474Z,1.20
2022-09-20T15:40:12.067Z,1.20
2022-09-20T15:42:41.541Z,0.75
2022-09-20T15:45:10.619Z,1.60
2022-09-20T15:47:38.738Z,1.00
2022-09-20T15:50:08.526Z,0.80
2022-09-20T15:52:42.558Z,1.10
2022-09-20T15:55:09.922Z,1.00
2022-09-20T15:57:37.002Z,1.00
2022-09-20T16:00:04.566Z,0.90
2022-09-20T16:02:35.875Z,1.05
2022-09-20T16:05:03.378Z,1.08
2022-09-20T16:07:30.371Z,1.00
2022-09-20T16:09:57.490Z,1.35
2022-09-20T16:12:25.790Z,1.00
2022-09-20T16:14:52.792Z,1.13
2022-09-20T16:17:39.820Z,1.25
2022-09-20T16:20:07.558Z,0.95
2022-09-20T16:22:34.802Z,1.23
2022-09-20T16:25:01.818Z,0.82
2022-09-20T16:27:31.676Z,1.00
2022-09-20T16:29:59.187Z,1.05
2022-09-20T16:32:26.162Z,0.90
2022-09-20T16:34:54.952Z,0.70
2022-09-20T16:37:23.788Z,1.00
2022-09-20T16:39:50.772Z,0.95
2022-09-20T16:42:17.596Z,1.00
2022-09-20T16:44:44.939Z,0.88
2022-09-20T16:47:20.755Z,1.00
2022-09-20T16:49:48.213Z,1.08
2022-09-20T16:52:15.338Z,1.15
2022-09-20T16:54:42.206Z,1.20
2022-09-20T16:57:09.770Z,1.17
2022-09-20T16:59:36.672Z,1.10
2022-09-20T17:02:03.983Z,1.27
2022-09-20T17:04:31.222Z,1.00
2022-09-20T17:06:58.288Z,1.17
2022-09-20T17:09:25.356Z,0.90
2022-09-20T17:11:52.714Z,0.98
2022-09-20T17:14:20.884Z,1.00
2022-09-20T17:16:49.233Z,1.00
2022-09-20T17:19:18.874Z,0.90
2022-09-20T17:21:50.997Z,0.90
2022-09-20T17:24:20.161Z,1.00
2022-09-20T17:26:47.525Z,1.30
2022-09-20T17:29:17.429Z,1.52
2022-09-20T17:31:54.398Z,2.30
2022-09-20T17:34:22.194Z,2.08
2022-09-20T17:36:50.419Z,2.30
2022-09-20T17:39:18.686Z,2.08
2022-09-20T17:41:47.493Z,2.00
2022-09-20T17:44:15.119Z,2.22
2022-09-20T17:46:44.581Z,3.75
2022-09-20T17:49:13.909Z,5.07
2022-09-20T17:51:43.090Z,3.40
2022-09-20T17:54:14.312Z,3.85
2022-09-20T17:56:49.283Z,4.80
2022-09-20T17:59:17.925Z,4.10
2022-09-20T18:01:47.153Z,4.43
2022-09-20T18:04:14.385Z,4.30
2022-09-20T18:06:49.749Z,3.20
2022-09-20T18:11:49.050Z,3.03
2022-09-20T18:14:18.218Z,3.20
2022-09-20T18:16:45.400Z,3.20
2022-09-20T18:19:13.189Z,3.22
2022-09-20T18:21:40.947Z,2.65
2022-09-20T18:24:12.190Z,2.67
2022-09-20T18:26:39.649Z,2.67
2022-09-20T18:29:12.441Z,2.83
2022-09-20T18:31:57.226Z,2.55
2022-09-20T18:34:30.412Z,2.50
2022-09-20T18:36:58.694Z,2.65
2022-09-20T18:39:27.857Z,2.60
2022-09-20T18:41:55.511Z,2.60
2022-09-20T18:44:23.369Z,2.65
2022-09-20T18:46:52.960Z,2.42
2022-09-20T18:49:21.643Z,2.42
2022-09-20T18:51:49.302Z,2.50
2022-09-20T18:54:16.904Z,2.25
2022-09-20T18:56:46.472Z,2.13
2022-09-20T18:59:20.904Z,2.30
2022-09-20T19:01:52.815Z,1.92
2022-09-20T19:04:44.683Z,2.42
2022-09-20T19:07:14.815Z,1.80
2022-09-20T19:09:56.752Z,1.80
2022-09-20T19:15:05.711Z,1.70
2022-09-20T19:18:01.074Z,1.83
2022-09-20T19:20:41.722Z,1.65
2022-09-20T19:23:46.357Z,2.13
2022-09-20T19:26:24.812Z,1.90
2022-09-20T19:28:55.130Z,1.95
2022-09-20T19:31:29.560Z,2.05
2022-09-20T19:33:58.888Z,2.30
2022-09-20T19:36:30.110Z,2.15
2022-09-20T19:39:06.764Z,2.03
2022-09-20T19:41:53.662Z,2.05
2022-09-20T19:44:42.653Z,1.98
2022-09-20T19:47:25.136Z,1.58
2022-09-20T19:50:10.063Z,1.42
2022-09-20T19:52:39.410Z,1.60
2022-09-20T19:55:06.903Z,1.50
2022-09-20T19:57:47.117Z,2.45
2022-09-20T20:00:20.440Z,2.30
2022-09-20T20:02:47.925Z,2.42
2022-09-20T20:05:18.335Z,2.05
2022-09-20T20:08:08.508Z,1.90
2022-09-20T20:10:53.563Z,1.92
2022-09-20T20:13:58.014Z,1.60
2022-09-20T20:16:47.869Z,1.60
2022-09-20T20:19:46.407Z,1.40
2022-09-20T20:22:22.049Z,1.40
2022-09-20T20:24:53.303Z,1.30
2022-09-20T20:27:21.058Z,1.30
2022-09-20T20:29:49.337Z,1.10
2022-09-20T20:32:16.569Z,1.13
2022-09-20T20:34:43.493Z,1.38
2022-09-20T20:37:10.423Z,1.40
2022-09-20T20:39:38.023Z,1.35
2022-09-20T20:42:06.493Z,1.73
2022-09-20T20:44:37.796Z,2.20
2022-09-20T20:47:06.444Z,1.90
2022-09-20T20:49:33.919Z,2.22
2022-09-20T20:52:04.883Z,2.13
2022-09-20T20:54:32.622Z,2.50
2022-09-20T20:56:59.757Z,2.28
2022-09-20T20:59:26.884Z,2.00
2022-09-20T21:01:53.971Z,2.25
2022-09-20T21:04:21.659Z,1.83
2022-09-20T21:06:50.437Z,1.55
2022-09-20T21:09:17.421Z,1.60
2022-09-20T21:11:44.865Z,1.73
2022-09-20T21:14:12.976Z,1.70
2022-09-20T21:16:43.107Z,1.50
2022-09-20T21:19:14.662Z,1.50
2022-09-20T21:21:43.807Z,1.63
2022-09-20T21:24:14.727Z,1.40
2022-09-20T21:26:42.083Z,1.60
2022-09-20T21:29:13.632Z,1.40
2022-09-20T21:31:42.830Z,1.80
2022-09-20T21:34:12.114Z,1.50
2022-09-20T21:36:41.495Z,1.55
2022-09-20T21:39:08.667Z,1.80
2022-09-20T21:41:37.709Z,1.80
2022-09-20T21:46:35.644Z,1.95
2022-09-20T21:49:05.505Z,2.33
2022-09-20T21:51:33.129Z,2.25
2022-09-20T21:54:01.744Z,2.30
2022-09-20T21:56:31.602Z,2.13
2022-09-20T21:58:59.392Z,2.42
2022-09-20T22:01:27.871Z,2.08
2022-09-20T22:03:58.894Z,2.03
2022-09-20T22:06:31.043Z,1.80
2022-09-20T22:09:03.247Z,1.65
2022-09-20T22:11:33.319Z,1.90
2022-09-20T22:14:00.425Z,1.73
2022-09-20T22:16:35.586Z,1.73
2022-09-20T22:19:02.779Z,1.70
2022-09-20T22:21:38.675Z,1.55
2022-09-20T22:24:08.687Z,1.48
2022-09-20T22:26:42.588Z,1.60
2022-09-20T22:29:10.051Z,1.60
2022-09-20T22:31:41.467Z,1.27
2022-09-20T22:34:08.587Z,1.58
2022-09-20T22:36:38.887Z,1.40
2022-09-20T22:39:08.601Z,1.20
2022-09-20T22:41:37.869Z,1.40
2022-09-20T22:44:05.796Z,1.33
2022-09-20T22:46:33.799Z,1.30
2022-09-20T22:49:01.155Z,1.20
2022-09-20T22:51:33.760Z,1.30
2022-09-20T22:54:04.940Z,1.30
2022-09-20T22:56:33.182Z,1.30
2022-09-20T22:59:06.336Z,1.30
2022-09-20T23:01:38.876Z,1.20
2022-09-20T23:04:08.773Z,1.10
2022-09-20T23:06:55.251Z,1.35
2022-09-20T23:09:25.288Z,1.40
2022-09-20T23:11:53.467Z,1.30
2022-09-20T23:14:21.866Z,1.20
2022-09-20T23:16:50.085Z,1.05
2022-09-20T23:19:20.476Z,1.40
2022-09-20T23:21:47.656Z,1.30
2022-09-20T23:24:16.257Z,1.17
2022-09-20T23:26:44.291Z,1.10
2022-09-20T23:29:14.160Z,1.40
2022-09-20T23:31:47.239Z,1.20
2022-09-20T23:34:16.447Z,1.30
2022-09-20T23:36:44.716Z,1.30
2022-09-20T23:39:12.602Z,1.17
2022-09-20T23:41:41.314Z,1.30
2022-09-20T23:44:10.463Z,1.30
2022-09-20T23:46:38.974Z,1.50
2022-09-20T23:49:07.072Z,1.20
2022-09-20T23:51:35.688Z,1.15
2022-09-20T23:54:03.109Z,1.20
2022-09-20T23:56:30.942Z,1.70
2022-09-20T23:58:58.169Z,2.05
